createdAt,value
2023-04-04T00:00:12.768Z,5.80
2023-04-04T00:05:14.871Z,5.70
2023-04-04T00:10:17.092Z,5.70
2023-04-04T00:15:19.317Z,5.60
2023-04-04T00:20:21.319Z,5.60
2023-04-04T00:25:23.805Z,5.50
2023-04-04T00:30:26.103Z,5.40
2023-04-04T00:35:28.093Z,5.30
2023-04-04T00:40:30.106Z,5.30
2023-04-04T00:45:32.710Z,5.20
2023-04-04T00:50:34.616Z,5.10
2023-04-04T00:55:38.822Z,5.10
2023-04-04T01:00:41.128Z,5.00
2023-04-04T01:05:43.090Z,5.00
2023-04-04T01:10:45.143Z,4.90
2023-04-04T01:15:47.703Z,4.90
2023-04-04T01:21:22.891Z,4.80
2023-04-04T01:26:27.028Z,4.80
2023-04-04T01:31:42.750Z,4.70
2023-04-04T01:37:03.021Z,4.70
2023-04-04T01:42:10.007Z,4.60
2023-04-04T01:47:15.845Z,4.50
2023-04-04T01:52:18.700Z,4.50
2023-04-04T01:57:20.524Z,4.50
2023-04-04T02:02:22.636Z,4.40
2023-04-04T02:07:24.495Z,4.40
2023-04-04T02:12:26.585Z,4.40
2023-04-04T02:17:29.225Z,4.40
2023-04-04T02:22:31.409Z,4.40
2023-04-04T02:27:33.238Z,4.50
2023-04-04T02:32:37.036Z,4.50
2023-04-04T02:37:41.287Z,4.50
2023-04-04T02:42:45.686Z,4.50
2023-04-04T02:47:52.540Z,4.50
2023-04-04T02:53:03.413Z,4.40
2023-04-04T02:58:08.447Z,4.30
2023-04-04T03:03:10.530Z,4.30
2023-04-04T03:08:17.320Z,4.30
2023-04-04T03:13:19.118Z,4.30
2023-04-04T03:18:21.441Z,4.30
2023-04-04T03:23:23.391Z,4.20
2023-04-04T03:28:26.350Z,4.20
2023-04-04T03:33:28.272Z,4.20
2023-04-04T03:38:30.422Z,4.20
2023-04-04T03:43:33.170Z,4.00
2023-04-04T03:48:34.950Z,4.10
2023-04-04T03:53:39.421Z,4.10
2023-04-04T03:58:41.488Z,4.00
2023-04-04T04:03:47.439Z,3.90
2023-04-04T04:08:49.395Z,3.80
2023-04-04T04:13:51.165Z,3.80
2023-04-04T04:18:53.462Z,3.80
2023-04-04T04:24:07.246Z,3.80
2023-04-04T04:29:09.133Z,3.80
2023-04-04T04:34:12.137Z,3.80
2023-04-04T04:39:16.239Z,3.90
2023-04-04T04:44:32.465Z,3.90
2023-04-04T04:49:34.506Z,4.00
2023-04-04T04:54:41.093Z,3.90
2023-04-04T04:59:43.146Z,3.90
2023-04-04T05:04:47.235Z,3.90
2023-04-04T05:09:51.490Z,3.90
2023-04-04T05:14:57.242Z,3.90
2023-04-04T05:19:59.752Z,3.80
2023-04-04T05:25:01.797Z,3.70
2023-04-04T05:30:04.427Z,3.70
2023-04-04T05:35:17.368Z,3.60
2023-04-04T05:40:20.376Z,3.70
2023-04-04T05:45:27.521Z,3.70
2023-04-04T05:50:31.573Z,3.80
2023-04-04T05:55:37.315Z,3.80
2023-04-04T06:00:40.163Z,3.90
2023-04-04T06:05:44.473Z,3.90
2023-04-04T06:10:47.299Z,3.90
2023-04-04T06:15:49.342Z,4.00
2023-04-04T06:20:55.057Z,4.00
2023-04-04T06:25:57.196Z,4.00
2023-04-04T06:31:00.191Z,4.00
2023-04-04T06:36:06.309Z,4.10
2023-04-04T06:41:08.317Z,4.20
2023-04-04T06:46:10.639Z,4.30
2023-04-04T06:51:13.014Z,4.30
2023-04-04T06:56:19.638Z,4.40
2023-04-04T07:01:21.765Z,4.50
2023-04-04T07:06:25.887Z,4.50
2023-04-04T07:11:29.229Z,4.60
2023-04-04T07:16:31.709Z,4.60
2023-04-04T07:21:33.708Z,4.80
2023-04-04T07:26:35.626Z,4.90
2023-04-04T07:31:37.641Z,5.00
2023-04-04T07:36:39.688Z,5.10
2023-04-04T07:41:41.959Z,5.20
2023-04-04T07:46:44.856Z,5.30
2023-04-04T07:51:49.003Z,5.40
2023-04-04T07:56:53.878Z,5.50
2023-04-04T08:01:55.832Z,5.60
2023-04-04T08:06:57.875Z,5.70
2023-04-04T08:12:00.211Z,5.80
2023-04-04T08:17:02.232Z,6.00
2023-04-04T08:22:04.245Z,6.10
2023-04-04T08:27:06.861Z,6.20
2023-04-04T08:32:09.410Z,6.40
2023-04-04T08:37:11.561Z,6.80
2023-04-04T08:42:16.878Z,7.40
2023-04-04T08:47:21.381Z,8.00
2023-04-04T08:52:25.468Z,8.50
2023-04-04T08:57:27.415Z,8.80
2023-04-04T09:03:00.023Z,9.00
2023-04-04T09:08:04.961Z,9.10
2023-04-04T09:13:15.537Z,9.20
2023-04-04T09:18:19.099Z,9.20
2023-04-04T09:23:23.476Z,9.40
2023-04-04T09:28:25.479Z,9.50
2023-04-04T09:33:27.670Z,9.50
2023-04-04T09:38:31.457Z,9.70
2023-04-04T09:43:35.425Z,9.70
2023-04-04T09:48:37.982Z,9.80
2023-04-04T09:53:42.273Z,9.90
2023-04-04T09:59:02.301Z,9.80
2023-04-04T10:04:06.463Z,9.90
2023-04-04T10:09:08.938Z,10.10
2023-04-04T10:14:11.635Z,10.20
2023-04-04T10:19:17.862Z,10.30
2023-04-04T10:24:19.756Z,10.50
2023-04-04T10:29:22.475Z,10.60
2023-04-04T10:34:44.953Z,10.90
2023-04-04T10:39:55.746Z,11.00
2023-04-04T10:45:03.543Z,11.00
2023-04-04T10:50:12.521Z,11.00
2023-04-04T10:55:15.949Z,11.10
2023-04-04T11:00:19.518Z,11.20
2023-04-04T11:05:47.445Z,11.30
2023-04-04T11:10:53.892Z,11.50
2023-04-04T11:15:58.938Z,11.60
2023-04-04T11:21:05.606Z,11.70
2023-04-04T11:26:08.554Z,11.80
2023-04-04T11:31:20.354Z,12.00
2023-04-04T11:36:50.754Z,12.20
2023-04-04T11:41:57.200Z,12.30
2023-04-04T11:47:06.039Z,12.20
2023-04-04T11:52:12.698Z,12.30
2023-04-04T11:57:16.864Z,12.30
2023-04-04T12:02:29.740Z,12.60
2023-04-04T12:07:31.838Z,12.70
2023-04-04T12:12:38.041Z,12.70
2023-04-04T12:17:44.375Z,12.80
2023-04-04T12:22:50.030Z,12.80
2023-04-04T12:27:53.289Z,12.80
2023-04-04T12:32:55.334Z,13.00
2023-04-04T12:38:13.787Z,12.90
2023-04-04T12:43:20.786Z,13.00
2023-04-04T12:48:28.728Z,13.00
2023-04-04T12:53:50.986Z,13.10
2023-04-04T12:58:53.014Z,13.00
2023-04-04T13:03:54.991Z,13.10
2023-04-04T13:08:57.295Z,13.20
2023-04-04T13:14:04.103Z,13.20
2023-04-04T13:19:06.633Z,13.40
2023-04-04T13:24:08.507Z,13.50
2023-04-04T13:29:10.334Z,13.50
2023-04-04T13:34:12.124Z,13.60
2023-04-04T13:39:13.978Z,13.80
2023-04-04T13:44:16.643Z,13.50
2023-04-04T13:49:18.609Z,13.40
2023-04-04T13:54:21.087Z,13.50
2023-04-04T13:59:23.103Z,13.70
2023-04-04T14:04:25.022Z,13.70
2023-04-04T14:09:26.845Z,13.70
2023-04-04T14:14:28.664Z,13.70
2023-04-04T14:19:30.517Z,13.90
2023-04-04T14:24:32.341Z,13.80
2023-04-04T14:29:34.200Z,13.80
2023-04-04T14:34:36.210Z,13.70
2023-04-04T14:39:38.134Z,13.80
2023-04-04T14:44:42.084Z,13.80
2023-04-04T14:49:44.012Z,13.70
2023-04-04T14:54:45.999Z,13.70
2023-04-04T14:59:48.024Z,13.80
2023-04-04T15:04:49.894Z,13.80
2023-04-04T15:09:51.820Z,13.70
2023-04-04T15:14:54.017Z,13.70
2023-04-04T15:19:56.058Z,13.60
2023-04-04T15:24:57.899Z,13.60
2023-04-04T15:29:59.960Z,13.60
2023-04-04T15:35:03.979Z,13.70
2023-04-04T15:40:06.365Z,13.80
2023-04-04T15:45:09.342Z,13.70
2023-04-04T15:50:11.863Z,13.70
2023-04-04T15:55:17.102Z,13.70
2023-04-04T16:00:19.304Z,13.70
2023-04-04T16:05:21.118Z,13.60
2023-04-04T16:10:22.990Z,13.50
2023-04-04T16:15:24.896Z,13.50
2023-04-04T16:20:27.314Z,13.30
2023-04-04T16:25:29.206Z,13.30
2023-04-04T16:30:32.094Z,13.30
2023-04-04T16:35:34.615Z,13.20
2023-04-04T16:40:36.744Z,13.10
2023-04-04T16:45:38.541Z,13.10
2023-04-04T16:50:40.653Z,12.80
2023-04-04T16:55:42.743Z,12.80
2023-04-04T17:00:44.783Z,12.80
2023-04-04T17:05:47.509Z,12.80
2023-04-04T17:10:49.377Z,12.70
2023-04-04T17:15:51.548Z,12.70
2023-04-04T17:20:53.392Z,12.50
2023-04-04T17:25:57.951Z,12.30
2023-04-04T17:30:59.881Z,12.20
2023-04-04T17:36:04.448Z,12.10
2023-04-04T17:41:07.633Z,11.90
2023-04-04T17:46:09.694Z,11.70
2023-04-04T17:51:11.669Z,11.50
2023-04-04T17:56:13.761Z,11.30
2023-04-04T18:01:16.054Z,11.30
2023-04-04T18:06:18.163Z,11.10
2023-04-04T18:11:19.952Z,10.90
2023-04-04T18:16:22.261Z,10.70
2023-04-04T18:21:27.948Z,10.60
2023-04-04T18:26:30.539Z,10.50
2023-04-04T18:31:32.374Z,10.50
2023-04-04T18:36:36.325Z,10.50
2023-04-04T18:41:40.248Z,10.40
2023-04-04T18:46:42.399Z,10.30
2023-04-04T18:51:44.263Z,10.30
2023-04-04T18:56:54.388Z,10.20
2023-04-04T19:01:58.029Z,10.20
2023-04-04T19:07:05.546Z,10.10
2023-04-04T19:12:07.511Z,9.90
2023-04-04T19:17:11.243Z,9.80
2023-04-04T19:22:13.326Z,9.70
2023-04-04T19:27:15.741Z,9.50
2023-04-04T19:32:19.567Z,9.40
2023-04-04T19:37:21.455Z,9.30
2023-04-04T19:42:27.930Z,9.30
2023-04-04T19:47:29.852Z,9.30
2023-04-04T19:52:31.807Z,9.10
2023-04-04T19:57:34.148Z,9.00
2023-04-04T20:02:47.984Z,9.00
2023-04-04T20:07:51.786Z,8.90
2023-04-04T20:12:54.090Z,8.80
2023-04-04T20:17:56.141Z,8.70
2023-04-04T20:22:58.091Z,8.60
2023-04-04T20:28:03.653Z,8.60
2023-04-04T20:33:28.663Z,8.40
2023-04-04T20:38:30.902Z,8.30
2023-04-04T20:43:32.999Z,8.30
2023-04-04T20:48:39.869Z,8.30
2023-04-04T20:53:41.727Z,8.10
2023-04-04T20:58:43.594Z,8.00
2023-04-04T21:03:47.168Z,8.00
2023-04-04T21:08:50.562Z,7.90
2023-04-04T21:13:53.887Z,8.00
2023-04-04T21:19:00.967Z,7.90
2023-04-04T21:24:06.849Z,7.90
2023-04-04T21:29:17.808Z,7.80
2023-04-04T21:34:21.694Z,7.80
2023-04-04T21:39:31.307Z,7.70
2023-04-04T21:44:33.196Z,7.60
2023-04-04T21:49:34.986Z,7.50
2023-04-04T21:54:36.857Z,7.50
2023-04-04T21:59:38.716Z,7.40
2023-04-04T22:04:40.625Z,7.40
2023-04-04T22:09:43.007Z,7.30
2023-04-04T22:14:45.437Z,7.20
2023-04-04T22:19:58.748Z,7.20
2023-04-04T22:25:03.526Z,7.10
2023-04-04T22:30:07.117Z,7.20
2023-04-04T22:35:15.198Z,7.10
2023-04-04T22:40:17.374Z,7.10
2023-04-04T22:45:19.291Z,7.00
2023-04-04T22:50:23.438Z,7.10
2023-04-04T22:55:26.575Z,7.10
2023-04-04T23:00:28.464Z,7.10
2023-04-04T23:05:30.506Z,7.10
2023-04-04T23:10:32.391Z,7.10
2023-04-04T23:15:37.609Z,7.00
2023-04-04T23:20:40.026Z,7.00
2023-04-04T23:25:42.202Z,7.00
2023-04-04T23:30:44.059Z,7.00
2023-04-04T23:35:46.014Z,7.00
2023-04-04T23:40:47.900Z,7.00
2023-04-04T23:45:50.058Z,7.00
2023-04-04T23:50:54.502Z,7.10
2023-04-04T23:55:56.454Z,7.00
